ZSBCD EDHI-EDDH
Flight info
| Callsign | ZSBCD |
|---|---|
| Flight time | 0h -19m |
| Altitude | 1500 |
| Route | DCT |
| Aircraft | BE36/L-SDFG/C |
Departure
| Time | 2026-04-22 14:00 |
|---|---|
| Airport | Hamburg-Finkenwerder Airport (EDHI) |
Arrival
| Time | 2026-04-22 13:40 |
|---|---|
| Airport | Hamburg Helmut Schmidt Airport (EDDH) |
| Time | Latitude | Longitude | Altitude | Speed | Heading |
|---|---|---|---|---|---|
| 2026-04-22 13:40 | 53.53140 | 9.83418 | 18 ft | 0 kts | 217° |
| 2026-04-22 13:56 | 53.53140 | 9.83417 | 18 ft | 0 kts | 217° |
| 2026-04-22 13:57 | 53.53142 | 9.83403 | 18 ft | 5 kts | 338° |
| 2026-04-22 13:57 | 53.53144 | 9.83403 | 18 ft | 0 kts | 342° |
| 2026-04-22 13:58 | 53.53162 | 9.83415 | 18 ft | 11 kts | 57° |
| 2026-04-22 13:58 | 53.53196 | 9.83416 | 18 ft | 12 kts | 345° |
| 2026-04-22 13:58 | 53.53307 | 9.83414 | 18 ft | 15 kts | 358° |
| 2026-04-22 13:58 | 53.53333 | 9.83409 | 18 ft | 0 kts | 348° |
| 2026-04-22 13:59 | 53.53339 | 9.83407 | 18 ft | 5 kts | 349° |
| 2026-04-22 13:59 | 53.53406 | 9.83339 | 18 ft | 18 kts | 286° |
| 2026-04-22 13:59 | 53.53305 | 9.83076 | 18 ft | 57 kts | 229° |
| 2026-04-22 14:00 | 53.52962 | 9.82372 | 220 ft | 84 kts | 235° |
| 2026-04-22 14:00 | 53.52608 | 9.81580 | 644 ft | 81 kts | 237° |
| 2026-04-22 14:00 | 53.52065 | 9.81153 | 855 ft | 113 kts | 174° |
| 2026-04-22 14:00 | 53.51384 | 9.82048 | 1082 ft | 133 kts | 144° |
| 2026-04-22 14:01 | 53.50749 | 9.83168 | 1441 ft | 134 kts | 128° |
| 2026-04-22 14:01 | 53.50523 | 9.84766 | 1558 ft | 146 kts | 90° |
| 2026-04-22 14:01 | 53.50646 | 9.86432 | 1686 ft | 138 kts | 66° |
| 2026-04-22 14:01 | 53.51103 | 9.87926 | 1608 ft | 151 kts | 61° |
| 2026-04-22 14:02 | 53.51569 | 9.89519 | 1610 ft | 151 kts | 62° |
| 2026-04-22 14:02 | 53.51989 | 9.91134 | 1598 ft | 151 kts | 67° |
| 2026-04-22 14:02 | 53.52343 | 9.92826 | 1558 ft | 156 kts | 70° |
| 2026-04-22 14:02 | 53.52698 | 9.94577 | 1532 ft | 158 kts | 69° |
| 2026-04-22 14:03 | 53.53061 | 9.96312 | 1502 ft | 156 kts | 66° |
| 2026-04-22 14:03 | 53.53585 | 9.97875 | 1479 ft | 150 kts | 51° |
| 2026-04-22 14:03 | 53.54236 | 9.99207 | 1468 ft | 144 kts | 43° |
| 2026-04-22 14:03 | 53.54861 | 10.00409 | 1537 ft | 127 kts | 46° |
| 2026-04-22 14:04 | 53.55376 | 10.01433 | 1475 ft | 106 kts | 43° |
| 2026-04-22 14:04 | 53.55934 | 10.01377 | 1367 ft | 98 kts | 278° |
| 2026-04-22 14:04 | 53.55466 | 10.00496 | 1385 ft | 129 kts | 195° |
| 2026-04-22 14:04 | 53.54640 | 10.01205 | 1445 ft | 155 kts | 122° |
| 2026-04-22 14:05 | 53.54755 | 10.02958 | 1513 ft | 156 kts | 42° |
| 2026-04-22 14:05 | 53.55668 | 10.03204 | 1523 ft | 135 kts | 319° |
| 2026-04-22 14:05 | 53.54925 | 10.01820 | 1500 ft | 155 kts | 141° |
| 2026-04-22 14:06 | 53.54665 | 10.03535 | 1451 ft | 166 kts | 66° |
| 2026-04-22 14:06 | 53.55557 | 10.04077 | 1518 ft | 134 kts | 328° |
| 2026-04-22 14:06 | 53.55928 | 10.02850 | 1573 ft | 123 kts | 259° |
| 2026-04-22 14:06 | 53.55288 | 10.01948 | 1537 ft | 144 kts | 183° |
| 2026-04-22 14:07 | 53.54611 | 10.03117 | 1317 ft | 173 kts | 85° |
| 2026-04-22 14:07 | 53.55451 | 10.03661 | 1384 ft | 131 kts | 317° |
| 2026-04-22 14:07 | 53.55655 | 10.02384 | 1443 ft | 125 kts | 243° |
| 2026-04-22 14:07 | 53.54850 | 10.01895 | 1496 ft | 144 kts | 165° |
| 2026-04-22 14:08 | 53.54260 | 10.03258 | 1575 ft | 156 kts | 101° |
| 2026-04-22 14:08 | 53.54616 | 10.04875 | 1604 ft | 153 kts | 30° |
| 2026-04-22 14:08 | 53.55521 | 10.04926 | 1653 ft | 132 kts | 316° |
| 2026-04-22 14:08 | 53.55587 | 10.03579 | 1603 ft | 131 kts | 238° |
| 2026-04-22 14:09 | 53.54715 | 10.03200 | 1526 ft | 155 kts | 154° |
| 2026-04-22 14:09 | 53.54313 | 10.04842 | 1522 ft | 164 kts | 76° |
| 2026-04-22 14:09 | 53.55046 | 10.06055 | 1606 ft | 146 kts | 5° |
| 2026-04-22 14:09 | 53.55964 | 10.05711 | 1597 ft | 130 kts | 327° |
| 2026-04-22 14:10 | 53.56745 | 10.05101 | 1441 ft | 117 kts | 325° |
| 2026-04-22 14:10 | 53.57410 | 10.04424 | 1231 ft | 107 kts | 320° |
| 2026-04-22 14:10 | 53.58015 | 10.03768 | 1078 ft | 102 kts | 322° |
| 2026-04-22 14:10 | 53.58621 | 10.03176 | 996 ft | 100 kts | 321° |
| 2026-04-22 14:11 | 53.59267 | 10.02560 | 935 ft | 113 kts | 331° |
| 2026-04-22 14:11 | 53.60042 | 10.02214 | 910 ft | 119 kts | 353° |
| 2026-04-22 14:11 | 53.60797 | 10.02875 | 939 ft | 125 kts | 40° |
| 2026-04-22 14:11 | 53.61394 | 10.03835 | 941 ft | 111 kts | 36° |
| 2026-04-22 14:12 | 53.61937 | 10.04679 | 815 ft | 103 kts | 35° |
| 2026-04-22 14:12 | 53.62465 | 10.05477 | 749 ft | 107 kts | 34° |
| 2026-04-22 14:12 | 53.63037 | 10.06340 | 775 ft | 113 kts | 35° |
| 2026-04-22 14:12 | 53.63630 | 10.07209 | 836 ft | 111 kts | 38° |
| 2026-04-22 14:13 | 53.64220 | 10.08152 | 732 ft | 117 kts | 14° |
| 2026-04-22 14:13 | 53.64824 | 10.07693 | 691 ft | 99 kts | 294° |
| 2026-04-22 14:13 | 53.65049 | 10.06605 | 643 ft | 97 kts | 285° |
| 2026-04-22 14:13 | 53.65162 | 10.05894 | 634 ft | 93 kts | 282° |
| 2026-04-22 14:14 | 53.65276 | 10.04844 | 620 ft | 91 kts | 276° |
| 2026-04-22 14:14 | 53.65248 | 10.03475 | 518 ft | 86 kts | 252° |
| 2026-04-22 14:14 | 53.65037 | 10.02914 | 478 ft | 86 kts | 237° |
| 2026-04-22 14:14 | 53.64579 | 10.01960 | 370 ft | 70 kts | 238° |
| 2026-04-22 14:15 | 53.64294 | 10.01365 | 276 ft | 61 kts | 236° |
| 2026-04-22 14:15 | 53.64102 | 10.00982 | 216 ft | 72 kts | 237° |
| 2026-04-22 14:15 | 53.63761 | 10.00279 | 136 ft | 78 kts | 233° |
| 2026-04-22 14:15 | 53.63449 | 9.99661 | 44 ft | 58 kts | 234° |
| 2026-04-22 14:16 | 53.63268 | 9.99285 | 46 ft | 32 kts | 234° |
| 2026-04-22 14:16 | 53.63134 | 9.99012 | 44 ft | 23 kts | 212° |
| 2026-04-22 14:16 | 53.63094 | 9.99103 | 43 ft | 12 kts | 104° |
| 2026-04-22 14:16 | 53.63069 | 9.99230 | 42 ft | 8 kts | 141° |
| 2026-04-22 14:17 | 53.63038 | 9.99225 | 42 ft | 4 kts | 213° |
| 2026-04-22 14:17 | 53.62991 | 9.99184 | 42 ft | 7 kts | 233° |
| 2026-04-22 14:17 | 53.62946 | 9.99093 | 42 ft | 11 kts | 254° |
| 2026-04-22 14:17 | 53.62883 | 9.98932 | 41 ft | 21 kts | 231° |
| 2026-04-22 14:18 | 53.62781 | 9.98726 | 41 ft | 22 kts | 236° |
| 2026-04-22 14:18 | 53.62722 | 9.98753 | 41 ft | 5 kts | 119° |
| 2026-04-22 14:18 | 53.62690 | 9.98723 | 41 ft | 10 kts | 212° |
| 2026-04-22 14:18 | 53.62696 | 9.98722 | 41 ft | 4 kts | 64° |
| 2026-04-22 14:19 | 53.62699 | 9.98733 | 41 ft | 0 kts | 61° |